createdAt,value
2018-07-06T00:01:25.348Z,77.80
2018-07-06T00:04:04.995Z,78.20
2018-07-06T00:06:44.759Z,78.40
2018-07-06T00:09:24.400Z,77.80
2018-07-06T00:12:04.152Z,77.90
2018-07-06T00:14:44.040Z,77.40
2018-07-06T00:17:23.755Z,77.80
2018-07-06T00:20:03.490Z,78.10
2018-07-06T00:22:43.296Z,78.90
2018-07-06T00:25:22.992Z,77.90
2018-07-06T00:28:03.127Z,78.00
2018-07-06T00:30:42.900Z,78.10
2018-07-06T00:33:22.574Z,77.80
2018-07-06T00:36:03.563Z,77.80
2018-07-06T00:38:43.245Z,77.60
2018-07-06T00:41:22.796Z,77.80
2018-07-06T00:44:02.358Z,77.80
2018-07-06T00:46:42.033Z,77.50
2018-07-06T00:49:21.828Z,78.00
2018-07-06T00:52:01.477Z,77.70
2018-07-06T00:54:41.324Z,77.50
2018-07-06T00:57:21.011Z,77.50
2018-07-06T01:00:01.402Z,78.00
2018-07-06T01:02:41.154Z,78.10
2018-07-06T01:05:20.976Z,77.70
2018-07-06T01:08:00.703Z,77.30
2018-07-06T01:10:40.701Z,77.40
2018-07-06T01:13:20.329Z,77.10
2018-07-06T01:16:00.112Z,76.90
2018-07-06T01:18:39.825Z,76.90
2018-07-06T01:21:19.399Z,76.70
2018-07-06T01:23:58.935Z,77.10
2018-07-06T01:26:38.840Z,77.60
2018-07-06T01:29:18.613Z,77.60
2018-07-06T01:31:58.337Z,77.40
2018-07-06T01:34:37.979Z,77.20
2018-07-06T01:37:17.533Z,77.10
2018-07-06T01:39:57.191Z,76.80
2018-07-06T01:42:36.818Z,76.40
2018-07-06T01:45:16.496Z,76.10
2018-07-06T01:47:56.326Z,76.10
2018-07-06T01:50:35.976Z,75.80
2018-07-06T01:53:15.717Z,75.70
2018-07-06T01:55:55.700Z,75.90
2018-07-06T01:58:35.864Z,75.50
2018-07-06T02:01:15.569Z,75.70
2018-07-06T02:03:55.911Z,76.20
2018-07-06T02:06:35.572Z,75.80
2018-07-06T02:09:15.330Z,75.40
2018-07-06T02:11:55.136Z,75.30
2018-07-06T02:14:35.015Z,75.70
2018-07-06T02:17:14.659Z,76.20
2018-07-06T02:19:54.201Z,76.30
2018-07-06T02:22:34.015Z,76.30
2018-07-06T02:25:13.873Z,76.10
2018-07-06T02:27:53.698Z,75.90
2018-07-06T02:30:33.388Z,75.30
2018-07-06T02:33:13.114Z,75.20
2018-07-06T02:35:53.089Z,75.60
2018-07-06T02:38:32.728Z,75.50
2018-07-06T02:41:12.499Z,75.50
2018-07-06T02:43:52.148Z,75.30
2018-07-06T02:46:31.780Z,75.50
2018-07-06T02:49:11.400Z,75.10
2018-07-06T02:51:51.019Z,75.50
2018-07-06T02:54:30.644Z,75.90
2018-07-06T02:57:10.443Z,76.40
2018-07-06T02:59:50.256Z,76.50
2018-07-06T03:02:29.926Z,76.10
2018-07-06T03:05:09.569Z,75.50
2018-07-06T03:07:49.287Z,74.90
2018-07-06T03:10:29.068Z,75.20
2018-07-06T03:13:08.615Z,74.80
2018-07-06T03:15:48.291Z,74.40
2018-07-06T03:18:28.101Z,74.50
2018-07-06T03:21:07.775Z,74.80
2018-07-06T03:23:47.395Z,75.30
2018-07-06T03:26:27.404Z,75.00
2018-07-06T03:29:07.078Z,74.80
2018-07-06T03:31:47.049Z,75.40
2018-07-06T03:34:26.931Z,75.70
2018-07-06T03:37:06.612Z,74.80
2018-07-06T03:39:46.230Z,75.50
2018-07-06T03:42:26.351Z,75.20
2018-07-06T03:45:06.111Z,75.30
2018-07-06T03:47:46.139Z,74.90
2018-07-06T03:50:25.833Z,75.20
2018-07-06T03:53:05.660Z,74.80
2018-07-06T03:55:45.411Z,75.20
2018-07-06T03:58:25.119Z,74.80
2018-07-06T04:01:05.367Z,74.60
2018-07-06T04:03:45.581Z,74.60
2018-07-06T04:06:25.431Z,74.50
2018-07-06T04:09:05.249Z,74.80
2018-07-06T04:11:45.132Z,74.90
2018-07-06T04:14:25.001Z,74.80
2018-07-06T04:17:05.343Z,75.00
2018-07-06T04:19:45.137Z,76.00
2018-07-06T04:22:24.883Z,77.00
2018-07-06T04:25:04.613Z,77.60
2018-07-06T04:27:44.278Z,78.00
2018-07-06T04:30:24.248Z,78.00
2018-07-06T04:33:04.012Z,78.20
2018-07-06T04:35:43.887Z,78.50
2018-07-06T04:38:23.647Z,79.10
2018-07-06T04:41:03.476Z,79.20
2018-07-06T04:43:43.095Z,79.40
2018-07-06T04:46:22.970Z,79.60
2018-07-06T04:49:02.737Z,80.00
2018-07-06T04:51:42.292Z,80.40
2018-07-06T04:54:21.847Z,82.00
2018-07-06T04:57:01.488Z,81.50
2018-07-06T05:02:15.195Z,81.80
2018-07-06T05:04:54.963Z,82.00
2018-07-06T05:07:34.699Z,81.90
2018-07-06T05:10:14.423Z,81.60
2018-07-06T05:12:54.358Z,81.80
2018-07-06T05:15:33.931Z,81.70
2018-07-06T05:18:13.873Z,81.80
2018-07-06T05:20:54.416Z,81.70
2018-07-06T05:23:34.010Z,81.30
2018-07-06T05:28:47.369Z,81.20
2018-07-06T05:31:27.112Z,81.00
2018-07-06T05:34:07.431Z,80.90
2018-07-06T05:36:47.052Z,81.10
2018-07-06T05:39:26.936Z,81.40
2018-07-06T05:42:06.748Z,80.80
2018-07-06T05:44:46.642Z,80.50
2018-07-06T05:47:26.411Z,80.60
2018-07-06T05:50:06.143Z,80.30
2018-07-06T05:52:45.900Z,80.80
2018-07-06T05:55:25.698Z,81.00
2018-07-06T05:58:05.220Z,81.00
2018-07-06T06:00:45.027Z,80.80
2018-07-06T06:03:24.975Z,80.30
2018-07-06T06:08:26.280Z,80.40
2018-07-06T06:10:55.969Z,79.80
2018-07-06T06:13:24.796Z,79.60
2018-07-06T06:15:53.339Z,79.10
2018-07-06T06:18:21.950Z,78.60
2018-07-06T06:20:50.613Z,78.30
2018-07-06T06:23:19.810Z,79.40
2018-07-06T06:25:49.673Z,79.10
2018-07-06T06:28:19.252Z,79.50
2018-07-06T06:30:47.989Z,78.40
2018-07-06T06:33:16.791Z,78.50
2018-07-06T06:35:45.496Z,78.50
2018-07-06T06:38:14.373Z,78.40
2018-07-06T06:40:43.040Z,78.30
2018-07-06T06:43:12.495Z,78.60
2018-07-06T06:45:41.542Z,78.40
2018-07-06T06:48:10.972Z,78.30
2018-07-06T06:50:40.715Z,78.10
2018-07-06T06:53:09.454Z,78.30
2018-07-06T06:58:06.443Z,78.30
2018-07-06T07:00:35.005Z,78.50
2018-07-06T07:03:03.761Z,78.60
2018-07-06T07:05:32.500Z,78.30
2018-07-06T07:08:01.515Z,78.00
2018-07-06T07:10:30.319Z,77.60
2018-07-06T07:13:01.724Z,77.80
2018-07-06T07:15:31.057Z,77.90
2018-07-06T07:17:59.929Z,78.10
2018-07-06T07:20:29.496Z,77.90
2018-07-06T07:22:58.287Z,78.10
2018-07-06T07:25:27.650Z,78.10
2018-07-06T07:27:56.839Z,78.90
2018-07-06T07:30:28.341Z,78.20
2018-07-06T07:33:03.374Z,77.30
2018-07-06T07:35:37.706Z,77.80
2018-07-06T07:38:06.468Z,78.00
2018-07-06T07:40:35.465Z,77.40
2018-07-06T07:43:04.108Z,77.50
2018-07-06T07:45:33.309Z,76.90
2018-07-06T07:48:02.828Z,76.50
2018-07-06T07:50:31.498Z,76.40
2018-07-06T07:53:11.286Z,76.40
2018-07-06T07:55:40.135Z,76.40
2018-07-06T07:58:09.030Z,76.20
2018-07-06T08:00:38.279Z,76.40
2018-07-06T08:03:08.041Z,77.00
2018-07-06T08:05:37.119Z,77.00
2018-07-06T08:08:06.065Z,77.30
2018-07-06T08:10:34.852Z,78.50
2018-07-06T08:13:04.626Z,77.90
2018-07-06T08:15:33.675Z,77.10
2018-07-06T08:18:02.471Z,76.50
2018-07-06T08:20:31.970Z,76.30
2018-07-06T08:23:00.551Z,76.20
2018-07-06T08:25:29.843Z,76.30
2018-07-06T08:28:00.124Z,76.60
2018-07-06T08:30:28.851Z,76.00
2018-07-06T08:32:57.542Z,75.50
2018-07-06T08:35:37.497Z,75.30
2018-07-06T08:38:07.225Z,75.40
2018-07-06T08:40:36.389Z,76.20
2018-07-06T08:43:06.779Z,75.50
2018-07-06T08:45:35.893Z,75.70
2018-07-06T08:48:04.664Z,74.70
2018-07-06T08:50:34.295Z,74.80
2018-07-06T08:53:03.076Z,74.00
2018-07-06T08:55:31.786Z,74.10
2018-07-06T08:58:00.922Z,74.10
2018-07-06T09:00:30.103Z,73.80
2018-07-06T09:02:59.154Z,73.70
2018-07-06T09:05:28.250Z,72.80
2018-07-06T09:07:56.892Z,72.90
2018-07-06T09:10:25.647Z,72.70
2018-07-06T09:12:55.026Z,72.70
2018-07-06T09:15:24.625Z,72.80
2018-07-06T09:17:53.559Z,72.70
2018-07-06T09:20:24.277Z,72.80
2018-07-06T09:22:53.546Z,72.90
2018-07-06T09:25:23.057Z,72.80
2018-07-06T09:27:51.686Z,73.00
2018-07-06T09:30:20.652Z,72.90
2018-07-06T09:32:49.399Z,72.80
2018-07-06T09:35:18.840Z,72.10
2018-07-06T09:37:47.603Z,71.70
2018-07-06T09:40:17.172Z,71.70
2018-07-06T09:42:46.179Z,72.00
2018-07-06T09:45:15.474Z,72.40
2018-07-06T09:50:13.522Z,73.20
2018-07-06T09:52:43.505Z,72.40
2018-07-06T09:55:13.755Z,72.20
2018-07-06T09:57:45.104Z,73.10
2018-07-06T10:00:18.823Z,71.90
2018-07-06T10:02:49.336Z,72.60
2018-07-06T10:05:18.076Z,71.70
2018-07-06T10:07:48.763Z,71.80
2018-07-06T10:10:21.897Z,71.40
2018-07-06T10:12:55.229Z,71.60
2018-07-06T10:15:27.985Z,71.30
2018-07-06T10:18:03.116Z,70.80
2018-07-06T10:20:36.869Z,70.20
2018-07-06T10:23:11.012Z,70.20
2018-07-06T10:25:43.868Z,70.50
2018-07-06T10:28:26.498Z,69.80
2018-07-06T10:32:14.249Z,70.00
2018-07-06T10:34:43.504Z,69.80
2018-07-06T10:37:18.260Z,70.10
2018-07-06T10:39:49.733Z,70.30
2018-07-06T10:42:18.676Z,69.20
2018-07-06T10:44:47.637Z,68.90
2018-07-06T10:47:17.548Z,68.20
2018-07-06T10:49:46.962Z,68.20
2018-07-06T10:52:16.355Z,69.20
2018-07-06T10:54:47.097Z,69.40
2018-07-06T10:57:16.610Z,68.20
2018-07-06T10:59:45.388Z,67.10
2018-07-06T11:02:14.679Z,67.50
2018-07-06T11:04:45.432Z,69.10
2018-07-06T11:07:15.125Z,69.60
2018-07-06T11:09:43.951Z,67.60
2018-07-06T11:12:12.784Z,68.00
2018-07-06T11:14:42.045Z,66.40
2018-07-06T11:17:11.168Z,65.80
2018-07-06T11:19:40.373Z,66.30
2018-07-06T11:22:09.352Z,66.00
2018-07-06T11:24:38.343Z,65.30
2018-07-06T11:27:07.987Z,64.90
2018-07-06T11:29:36.603Z,65.90
2018-07-06T11:32:06.124Z,66.50
2018-07-06T11:34:34.834Z,65.70
2018-07-06T11:37:07.190Z,65.00
2018-07-06T11:39:36.719Z,66.10
2018-07-06T11:42:07.657Z,66.50
2018-07-06T11:44:36.825Z,66.50
2018-07-06T11:47:05.994Z,66.20
2018-07-06T11:49:35.686Z,67.10
2018-07-06T11:52:04.780Z,67.10
2018-07-06T11:54:34.195Z,67.10
2018-07-06T11:59:32.079Z,66.90
2018-07-06T12:02:00.724Z,66.60
2018-07-06T12:04:30.300Z,65.70
2018-07-06T12:06:58.968Z,65.70
2018-07-06T12:09:29.129Z,64.90
2018-07-06T12:11:58.131Z,64.90
2018-07-06T12:14:27.420Z,65.10
2018-07-06T12:16:56.625Z,65.40
2018-07-06T12:19:25.348Z,64.60
2018-07-06T12:21:55.967Z,63.70
2018-07-06T12:24:25.544Z,64.30
2018-07-06T12:26:54.706Z,64.70
2018-07-06T12:29:23.700Z,63.30
2018-07-06T12:31:52.840Z,63.70
2018-07-06T12:34:21.905Z,63.70
2018-07-06T12:36:50.861Z,63.80
2018-07-06T12:39:20.165Z,62.00
2018-07-06T12:41:49.368Z,60.90
2018-07-06T12:44:18.055Z,61.10
2018-07-06T12:46:47.633Z,62.10
2018-07-06T12:49:16.811Z,63.30
2018-07-06T12:51:46.748Z,63.20
2018-07-06T12:54:15.503Z,63.30
2018-07-06T12:56:44.597Z,62.90
2018-07-06T12:59:13.736Z,62.30
2018-07-06T13:01:43.064Z,62.30
2018-07-06T13:04:12.423Z,61.40
2018-07-06T13:06:41.286Z,61.90
2018-07-06T13:09:09.970Z,62.40
2018-07-06T13:11:40.399Z,61.50
2018-07-06T13:14:09.316Z,59.70
2018-07-06T13:16:37.999Z,59.90
2018-07-06T13:19:07.140Z,60.50
2018-07-06T13:21:36.176Z,59.50
2018-07-06T13:24:05.495Z,59.10
2018-07-06T13:26:34.609Z,60.30
2018-07-06T13:31:32.271Z,59.70
2018-07-06T13:34:01.035Z,58.70
2018-07-06T13:36:29.952Z,60.80
2018-07-06T13:38:58.853Z,60.60
2018-07-06T13:41:27.745Z,60.00
2018-07-06T13:43:56.426Z,61.50
2018-07-06T13:46:26.440Z,61.40
2018-07-06T13:48:55.176Z,61.90
2018-07-06T13:51:24.494Z,62.90
2018-07-06T13:53:54.223Z,62.40
2018-07-06T13:56:24.023Z,63.10
2018-07-06T13:58:52.875Z,62.80
2018-07-06T14:01:22.109Z,62.80
2018-07-06T14:03:50.796Z,62.80
2018-07-06T14:06:20.835Z,63.50
2018-07-06T14:08:50.149Z,62.20
2018-07-06T14:11:19.597Z,64.60
2018-07-06T14:13:48.814Z,64.00
2018-07-06T14:16:17.399Z,63.70
2018-07-06T14:18:46.929Z,63.50
2018-07-06T14:21:16.420Z,62.80
2018-07-06T14:23:45.194Z,62.60
2018-07-06T14:26:14.203Z,63.10
2018-07-06T14:28:42.987Z,62.60
2018-07-06T14:31:12.732Z,63.50
2018-07-06T14:33:41.952Z,62.70
2018-07-06T14:36:11.334Z,63.00
2018-07-06T14:38:40.681Z,62.90
2018-07-06T14:41:10.353Z,63.20
2018-07-06T14:43:40.216Z,61.60
2018-07-06T14:46:09.541Z,62.50
2018-07-06T14:48:38.255Z,61.90
2018-07-06T14:51:07.520Z,61.80
2018-07-06T14:53:36.671Z,60.70
2018-07-06T14:56:05.314Z,59.60
2018-07-06T14:58:34.538Z,59.00
2018-07-06T15:01:03.374Z,56.10
2018-07-06T15:03:32.019Z,55.60
2018-07-06T15:06:00.737Z,56.10
2018-07-06T15:08:29.718Z,55.50
2018-07-06T15:10:59.269Z,55.20
2018-07-06T15:13:28.391Z,55.30
2018-07-06T15:18:25.613Z,55.40
2018-07-06T15:20:54.138Z,56.60
2018-07-06T15:23:24.435Z,58.20
2018-07-06T15:25:53.148Z,56.40
2018-07-06T15:28:21.804Z,58.30
2018-07-06T15:33:20.188Z,57.50
2018-07-06T15:35:49.320Z,57.90
2018-07-06T15:38:18.464Z,58.20
2018-07-06T15:40:47.677Z,58.00
2018-07-06T15:43:16.265Z,58.80
2018-07-06T15:45:45.541Z,59.60
2018-07-06T15:48:14.733Z,58.60
2018-07-06T15:50:43.863Z,57.80
2018-07-06T15:53:12.614Z,58.30
2018-07-06T15:58:09.796Z,57.40
2018-07-06T16:00:39.477Z,59.30
2018-07-06T16:03:09.477Z,57.30
2018-07-06T16:05:38.513Z,57.00
2018-07-06T16:08:07.921Z,57.10
2018-07-06T16:10:37.671Z,58.70
2018-07-06T16:13:06.440Z,59.40
2018-07-06T16:15:34.994Z,58.40
2018-07-06T16:18:03.661Z,56.50
2018-07-06T16:20:32.374Z,56.50
2018-07-06T16:23:01.309Z,55.60
2018-07-06T16:25:29.908Z,55.40
2018-07-06T16:27:58.818Z,56.40
2018-07-06T16:30:27.559Z,57.00
2018-07-06T16:32:56.144Z,56.80
2018-07-06T16:35:24.791Z,57.80
2018-07-06T16:37:53.836Z,57.20
2018-07-06T16:40:22.762Z,56.80
2018-07-06T16:42:51.515Z,56.00
2018-07-06T16:45:20.577Z,55.00
2018-07-06T16:47:49.555Z,55.00
2018-07-06T16:50:18.273Z,54.40
2018-07-06T16:52:47.288Z,54.60
2018-07-06T16:55:17.245Z,53.60
2018-07-06T16:57:46.140Z,53.70
2018-07-06T17:02:43.415Z,53.20
2018-07-06T17:07:55.488Z,53.80
2018-07-06T17:10:24.608Z,54.70
2018-07-06T17:15:21.895Z,56.60
2018-07-06T17:17:51.960Z,54.60
2018-07-06T17:20:20.509Z,54.10
2018-07-06T17:22:49.343Z,53.40
2018-07-06T17:25:18.313Z,54.50
2018-07-06T17:27:47.169Z,53.60
2018-07-06T17:30:16.192Z,53.00
2018-07-06T17:32:45.172Z,53.00
2018-07-06T17:35:14.513Z,52.60
2018-07-06T17:37:43.072Z,53.60
2018-07-06T17:40:11.938Z,52.90
2018-07-06T17:42:41.949Z,54.60
2018-07-06T17:45:11.245Z,53.20
2018-07-06T17:47:40.732Z,52.40
2018-07-06T17:50:10.260Z,53.40
2018-07-06T17:52:38.946Z,52.90
2018-07-06T17:55:07.888Z,52.80
2018-07-06T17:57:36.624Z,55.30
2018-07-06T18:00:05.499Z,54.30
2018-07-06T18:02:34.202Z,54.00
2018-07-06T18:05:03.074Z,55.30
2018-07-06T18:10:00.936Z,55.90
2018-07-06T18:12:30.007Z,57.60
2018-07-06T18:14:59.463Z,54.80
2018-07-06T18:17:28.143Z,56.50
2018-07-06T18:19:56.864Z,55.50
2018-07-06T18:22:26.568Z,55.80
2018-07-06T18:24:55.556Z,57.30
2018-07-06T18:27:24.118Z,57.70
2018-07-06T18:29:53.361Z,58.20
2018-07-06T18:32:22.334Z,59.10
2018-07-06T18:34:51.349Z,58.70
2018-07-06T18:37:20.116Z,59.30
2018-07-06T18:39:49.230Z,58.20
2018-07-06T18:42:18.047Z,58.30
2018-07-06T18:44:46.755Z,58.50
2018-07-06T18:47:15.731Z,58.90
2018-07-06T18:49:44.982Z,59.10
2018-07-06T18:52:13.609Z,59.70
2018-07-06T18:54:42.346Z,60.10
2018-07-06T18:57:11.482Z,60.70
2018-07-06T18:59:40.391Z,61.20
2018-07-06T19:02:09.046Z,61.70
2018-07-06T19:04:38.043Z,61.40
2018-07-06T19:07:06.880Z,61.50
2018-07-06T19:09:35.806Z,59.40
2018-07-06T19:12:04.533Z,60.10
2018-07-06T19:14:33.443Z,60.40
2018-07-06T19:17:02.394Z,60.10
2018-07-06T19:19:30.963Z,60.90
2018-07-06T19:22:00.001Z,61.20
2018-07-06T19:24:28.556Z,61.70
2018-07-06T19:26:57.108Z,59.60
2018-07-06T19:29:25.991Z,59.40
2018-07-06T19:31:54.791Z,60.30
2018-07-06T19:36:51.575Z,59.40
2018-07-06T19:39:20.354Z,59.90
2018-07-06T19:41:49.276Z,59.40
2018-07-06T19:44:17.880Z,59.60
2018-07-06T19:46:46.687Z,59.50
2018-07-06T19:49:15.244Z,60.20
2018-07-06T19:51:44.132Z,60.20
2018-07-06T19:54:13.087Z,60.00
2018-07-06T19:56:42.262Z,61.10
2018-07-06T20:01:39.942Z,62.30
2018-07-06T20:04:09.007Z,61.70
2018-07-06T20:06:37.668Z,60.70
2018-07-06T20:09:07.328Z,62.10
2018-07-06T20:11:36.883Z,61.80
2018-07-06T20:14:05.723Z,61.20
2018-07-06T20:16:35.173Z,60.00
2018-07-06T20:19:05.159Z,60.70
2018-07-06T20:21:34.697Z,61.00
2018-07-06T20:24:03.905Z,59.40
2018-07-06T20:26:33.157Z,59.30
2018-07-06T20:29:02.439Z,59.50
2018-07-06T20:31:31.904Z,60.30
2018-07-06T20:34:01.007Z,59.30
2018-07-06T20:36:30.565Z,58.90
2018-07-06T20:39:00.054Z,58.90
2018-07-06T20:41:28.700Z,59.10
2018-07-06T20:43:57.322Z,60.00
2018-07-06T20:46:26.232Z,59.80
2018-07-06T20:48:56.508Z,60.70
2018-07-06T20:51:25.393Z,60.40
2018-07-06T20:53:54.704Z,61.50
2018-07-06T20:56:24.000Z,61.80
2018-07-06T20:58:52.840Z,62.80
2018-07-06T21:01:21.438Z,61.80
2018-07-06T21:03:49.999Z,61.00
2018-07-06T21:06:18.788Z,62.10
2018-07-06T21:08:47.802Z,62.50
2018-07-06T21:11:17.155Z,61.50
2018-07-06T21:13:45.782Z,62.10
2018-07-06T21:16:14.825Z,61.50
2018-07-06T21:18:44.076Z,61.90
2018-07-06T21:21:13.403Z,62.90
2018-07-06T21:23:42.036Z,62.20
2018-07-06T21:26:10.695Z,62.40
2018-07-06T21:28:39.357Z,62.40
2018-07-06T22:02:57.744Z,63.00
2018-07-06T22:05:26.448Z,68.50
2018-07-06T22:07:55.103Z,67.80
2018-07-06T22:10:23.788Z,67.50
2018-07-06T22:12:52.448Z,67.30
2018-07-06T22:15:21.164Z,67.50
2018-07-06T22:17:50.274Z,67.40
2018-07-06T22:20:18.957Z,67.30
2018-07-06T22:22:47.696Z,67.30
2018-07-06T22:25:16.420Z,67.40
2018-07-06T22:27:45.134Z,67.40
2018-07-06T22:30:13.848Z,67.40
2018-07-06T22:32:42.444Z,67.70
2018-07-06T22:35:11.168Z,67.80
2018-07-06T22:37:39.855Z,67.80
2018-07-06T22:40:08.553Z,67.50
2018-07-06T22:42:37.326Z,67.50
2018-07-06T22:45:06.024Z,67.40
2018-07-06T22:47:34.656Z,67.60
2018-07-06T22:50:03.293Z,67.60
2018-07-06T22:52:31.991Z,67.50
2018-07-06T22:55:00.673Z,67.50
2018-07-06T22:57:29.460Z,66.80
2018-07-06T22:59:58.047Z,66.70
2018-07-06T23:02:26.690Z,66.90
2018-07-06T23:04:55.455Z,66.70
2018-07-06T23:07:24.328Z,66.70
2018-07-06T23:09:53.478Z,67.00
2018-07-06T23:12:22.015Z,67.20
2018-07-06T23:14:50.674Z,67.50
2018-07-06T23:17:19.175Z,67.60
2018-07-06T23:19:47.732Z,67.80
2018-07-06T23:23:23.508Z,68.00
2018-07-06T23:25:52.072Z,68.30
2018-07-06T23:28:20.639Z,68.40
2018-07-06T23:30:49.203Z,68.50
2018-07-06T23:33:17.740Z,68.00
2018-07-06T23:35:46.365Z,67.90
2018-07-06T23:38:15.070Z,67.20
2018-07-06T23:40:43.576Z,66.90
2018-07-06T23:43:12.329Z,66.50
2018-07-06T23:45:41.105Z,66.50
2018-07-06T23:50:37.812Z,66.60
2018-07-06T23:53:06.919Z,67.40
2018-07-06T23:55:35.528Z,67.60
